Time;durP1;ratioP1;P1;durP2;ratioP2;P2;SDS_P1;SDS_P2;PMS_P1;PMS_P2;Temp;Humidity;BMP_temperature;BMP_pressure;BME280_temperature;BME280_humidity;BME280_pressure;Samples;Min_cycle;Max_cycle;Signal;HPM_P1;HPM_P2
2023/03/25 00:00:38;;;;;;;;;;;;;;;10.14;70.00;99239.06;1087653;54;19966;-79
2023/03/25 00:01:42;;;;;;;;;;;;;;;10.07;69.59;99232.72;1087737;54;20022;-79
2023/03/25 00:02:44;;;;;;;;;;;;;;;10.10;69.65;99236.88;1087680;54;20006;-79
2023/03/25 00:03:49;;;;;;;;;;;;;;;10.16;70.11;99238.91;1087626;54;20006;-79
2023/03/25 00:04:50;;;;;;;;;;;;;;;10.13;70.00;99244.59;1087619;54;19942;-79
2023/03/25 00:05:54;;;;;;;;;;;;;;;10.05;69.50;99233.88;1087663;47;19939;-79
2023/03/25 00:06:55;;;;;;;;;;;;;;;10.13;69.59;99245.41;1087733;54;19943;-79
2023/03/25 00:08:02;;;;;;;;;;;;;;;10.11;69.83;99239.38;1087591;54;19943;-78
2023/03/25 00:09:03;;;;;;;;;;;;;;;10.18;69.67;99241.44;1087528;54;19949;-78
2023/03/25 00:10:08;;;;;;;;;;;;;;;10.10;69.66;99237.72;1087701;54;19954;-79
2023/03/25 00:11:09;;;;;;;;;;;;;;;10.09;69.92;99241.41;1087731;54;19966;-78
2023/03/25 00:12:13;;;;;;;;;;;;;;;10.10;69.47;99232.41;1087662;54;19950;-79
2023/03/25 00:13:14;;;;;;;;;;;;;;;10.06;69.51;99233.69;1087676;54;19942;-78
2023/03/25 00:14:18;;;;;;;;;;;;;;;10.03;69.47;99242.03;1087691;54;19981;-79
2023/03/25 00:15:21;;;;;;;;;;;;;;;10.02;68.67;99232.34;1087838;39;20609;-79
2023/03/25 00:16:24;;;;;;;;;;;;;;;10.06;68.90;99230.22;1087655;54;19949;-79
2023/03/25 00:17:27;;;;;;;;;;;;;;;10.07;69.13;99237.19;1088095;39;20471;-80
2023/03/25 00:18:32;;;;;;;;;;;;;;;10.07;69.63;99239.88;1087584;54;19993;-79
2023/03/25 00:19:34;;;;;;;;;;;;;;;10.09;69.23;99236.06;1087592;54;19946;-79
2023/03/25 00:20:39;;;;;;;;;;;;;;;10.07;69.00;99237.19;1087816;46;19943;-79
2023/03/25 00:21:43;;;;;;;;;;;;;;;10.15;69.22;99239.91;1087661;54;19994;-79
2023/03/25 00:22:47;;;;;;;;;;;;;;;10.18;69.39;99230.75;1087556;54;19942;-78
2023/03/25 00:23:50;;;;;;;;;;;;;;;10.18;69.08;99234.22;1087577;54;19943;-79
2023/03/25 00:24:54;;;;;;;;;;;;;;;10.24;68.79;99228.25;1087612;54;19942;-79
2023/03/25 00:25:59;;;;;;;;;;;;;;;10.13;68.65;99229.38;1087645;54;19950;-79
2023/03/25 00:27:02;;;;;;;;;;;;;;;10.11;68.55;99236.72;1087916;46;19945;-79
2023/03/25 00:28:04;;;;;;;;;;;;;;;10.07;67.93;99238.06;1087875;46;19994;-79
2023/03/25 00:29:07;;;;;;;;;;;;;;;10.14;68.22;99228.38;1087614;54;19949;-79
2023/03/25 00:30:09;;;;;;;;;;;;;;;10.10;68.15;99236.88;1087872;54;19943;-78
2023/03/25 00:31:14;;;;;;;;;;;;;;;10.09;68.00;99236.06;1087801;46;19943;-79
2023/03/25 00:32:16;;;;;;;;;;;;;;;10.06;68.16;99240.88;1087557;54;19942;-79
2023/03/25 00:33:21;;;;;;;;;;;;;;;10.07;68.00;99238.06;1088411;46;19950;-78
2023/03/25 00:34:22;;;;;;;;;;;;;;;10.11;67.99;99236.72;1088120;46;19965;-78
2023/03/25 00:35:27;;;;;;;;;;;;;;;10.06;67.54;99235.56;1087559;54;19970;-79
2023/03/25 00:36:28;;;;;;;;;;;;;;;10.09;67.81;99236.06;1088332;46;19954;-79
2023/03/25 00:37:32;;;;;;;;;;;;;;;10.20;67.58;99228.75;1087610;54;19981;-79
2023/03/25 00:38:34;;;;;;;;;;;;;;;10.19;67.74;99235.09;1088294;46;19965;-78
2023/03/25 00:39:41;;;;;;;;;;;;;;;10.19;67.69;99229.75;1088260;46;19939;-79
2023/03/25 00:40:42;;;;;;;;;;;;;;;10.20;67.50;99247.44;1087484;54;19950;-78
2023/03/25 00:41:47;;;;;;;;;;;;;;;10.11;67.15;99234.03;1087847;46;19946;-79
2023/03/25 00:42:49;;;;;;;;;;;;;;;10.18;67.46;99233.41;1087652;54;19965;-79
2023/03/25 00:43:53;;;;;;;;;;;;;;;10.14;67.03;99236.41;1088674;39;20653;-78
2023/03/25 00:44:54;;;;;;;;;;;;;;;10.20;67.33;99232.25;1087591;54;20310;-79
2023/03/25 00:45:58;;;;;;;;;;;;;;;10.19;67.32;99235.09;1087523;54;19946;-78
2023/03/25 00:46:59;;;;;;;;;;;;;;;10.19;67.10;99225.22;1088994;39;20180;-78
2023/03/25 00:48:03;;;;;;;;;;;;;;;10.20;67.17;99231.41;1087550;54;20705;-79
2023/03/25 00:49:04;;;;;;;;;;;;;;;10.15;67.42;99227.38;1087524;54;19942;-79
2023/03/25 00:50:08;;;;;;;;;;;;;;;10.13;67.25;99229.38;1087627;54;19942;-78
2023/03/25 00:51:12;;;;;;;;;;;;;;;10.11;67.35;99220.69;1091569;39;20598;-80
2023/03/25 00:52:17;;;;;;;;;;;;;;;10.09;67.19;99220.03;1087640;54;19943;-78
2023/03/25 00:53:18;;;;;;;;;;;;;;;10.11;67.35;99217.19;1087595;54;20023;-78
2023/03/25 00:54:23;;;;;;;;;;;;;;;10.15;67.32;99222.03;1088836;46;19939;-79
2023/03/25 00:55:27;;;;;;;;;;;;;;;10.10;67.68;99223.53;1087544;54;19939;-78
2023/03/25 00:56:31;;;;;;;;;;;;;;;10.01;67.44;99220.00;1087654;54;19942;-79
2023/03/25 00:57:32;;;;;;;;;;;;;;;9.99;67.22;99220.16;1090445;39;20487;-79
2023/03/25 00:58:36;;;;;;;;;;;;;;;10.01;67.02;99224.50;1087851;31;20673;-79
2023/03/25 00:59:37;;;;;;;;;;;;;;;10.05;67.29;99218.69;1087659;54;19943;-79
2023/03/25 01:00:41;;;;;;;;;;;;;;;10.06;67.08;99222.19;1087565;54;19950;-79
2023/03/25 01:01:42;;;;;;;;;;;;;;;10.14;67.21;99222.22;1087680;54;19998;-79
2023/03/25 01:02:47;;;;;;;;;;;;;;;10.12;66.79;99227.69;1087549;54;19958;-79
2023/03/25 01:03:56;;;;;;;;;;;;;;;10.06;66.71;99222.19;1087443;54;19951;-79
2023/03/25 01:05:00;;;;;;;;;;;;;;;10.05;66.64;99215.19;1087635;54;19950;-78
2023/03/25 01:06:02;;;;;;;;;;;;;;;10.11;66.24;99218.00;1087561;54;20517;-78
2023/03/25 01:07:05;;;;;;;;;;;;;;;10.06;65.87;99225.69;1087659;54;19962;-79
2023/03/25 01:08:07;;;;;;;;;;;;;;;10.07;65.95;99226.50;1087465;54;19950;-78
2023/03/25 01:09:12;;;;;;;;;;;;;;;10.03;66.40;99215.31;1087209;54;19942;-79
2023/03/25 01:10:13;;;;;;;;;;;;;;;10.00;65.94;99215.66;1087581;54;19942;-78
2023/03/25 01:11:22;;;;;;;;;;;;;;;10.06;66.16;99214.19;1087578;54;20015;-78
2023/03/25 01:12:24;;;;;;;;;;;;;;;10.14;65.90;99211.53;1087590;54;19950;-79
2023/03/25 01:13:28;;;;;;;;;;;;;;;10.14;66.14;99209.69;1087479;54;19950;-78
2023/03/25 01:14:29;;;;;;;;;;;;;;;10.17;65.90;99213.03;1087582;54;20407;-79
2023/03/25 01:15:33;;;;;;;;;;;;;;;10.13;66.00;99208.00;1088588;39;20559;-79
2023/03/25 01:16:34;;;;;;;;;;;;;;;10.17;66.02;99215.72;1087603;54;19949;-78
2023/03/25 01:17:38;;;;;;;;;;;;;;;10.10;65.92;99210.19;1087569;54;19942;-79
2023/03/25 01:18:40;;;;;;;;;;;;;;;10.11;66.16;99207.34;1087546;54;20722;-79
2023/03/25 01:19:44;;;;;;;;;;;;;;;10.10;66.11;99205.69;1087494;54;19965;-78
2023/03/25 01:20:45;;;;;;;;;;;;;;;10.10;66.27;99205.69;1087613;54;19998;-79
2023/03/25 01:21:49;;;;;;;;;;;;;;;10.11;66.50;99204.66;1087610;54;19942;-79
2023/03/25 01:22:50;;;;;;;;;;;;;;;10.17;66.23;99205.03;1087637;54;19973;-78
2023/03/25 01:23:54;;;;;;;;;;;;;;;10.12;66.27;99201.00;1087607;54;20019;-78
2023/03/25 01:24:55;;;;;;;;;;;;;;;10.08;66.17;99205.00;1087604;54;19943;-79
2023/03/25 01:25:59;;;;;;;;;;;;;;;10.01;66.22;99197.78;1090093;39;20566;-78
2023/03/25 01:27:05;;;;;;;;;;;;;;;10.06;66.40;99208.84;1087659;54;19950;-79
2023/03/25 01:28:06;;;;;;;;;;;;;;;10.13;66.49;99207.19;1087498;54;19949;-80
2023/03/25 01:29:10;;;;;;;;;;;;;;;10.19;66.40;99197.69;1087460;54;19994;-79
2023/03/25 01:30:12;;;;;;;;;;;;;;;10.16;66.70;99201.50;1087635;54;19935;-79
2023/03/25 01:31:16;;;;;;;;;;;;;;;10.11;66.50;99195.81;1087502;54;20638;-80
2023/03/25 01:32:17;;;;;;;;;;;;;;;10.15;66.33;99192.66;1087448;54;19943;-79
2023/03/25 01:33:21;;;;;;;;;;;;;;;10.22;66.36;99200.03;1087473;54;19965;-79
2023/03/25 01:34:23;;;;;;;;;;;;;;;10.25;66.33;99197.03;1087545;54;19943;-79
2023/03/25 01:35:26;;;;;;;;;;;;;;;10.24;66.01;99190.00;1087618;54;19954;-79
2023/03/25 01:36:28;;;;;;;;;;;;;;;10.16;66.08;99198.84;1087507;54;20706;-79
2023/03/25 01:37:35;;;;;;;;;;;;;;;10.21;66.27;99191.19;1087579;54;19942;-79
2023/03/25 01:38:36;;;;;;;;;;;;;;;10.09;66.53;99197.81;1087538;54;19943;-79
2023/03/25 01:39:40;;;;;;;;;;;;;;;10.17;66.11;99191.69;1087828;46;19956;-79
2023/03/25 01:40:44;;;;;;;;;;;;;;;10.22;66.32;99192.00;1087573;54;19942;-79
2023/03/25 01:41:49;;;;;;;;;;;;;;;10.19;66.15;99193.19;1088548;39;20135;-79
2023/03/25 01:42:53;;;;;;;;;;;;;;;10.13;65.70;99196.50;1087413;54;19966;-79
2023/03/25 01:44:04;;;;;;;;;;;;;;;10.14;66.15;99184.84;1087497;54;19943;-79
2023/03/25 01:45:20;;;;;;;;;;;;;;;10.04;65.86;99179.63;1088264;46;20014;-79
2023/03/25 01:46:23;;;;;;;;;;;;;;;10.09;65.63;99185.31;1087104;54;20017;-79
2023/03/25 01:47:25;;;;;;;;;;;;;;;10.14;66.15;99185.66;1088473;46;20666;-79
2023/03/25 01:48:31;;;;;;;;;;;;;;;10.08;66.05;99175.63;1087279;39;20578;-80
2023/03/25 01:49:38;;;;;;;;;;;;;;;10.07;66.04;99183.78;1087230;54;19950;-81
2023/03/25 01:50:44;;;;;;;;;;;;;;;10.06;66.15;99182.97;1087133;54;20777;-80
2023/03/25 20:09:02;;;;;;;;;;;;;;;10.69;66.05;99397.28;1090264;46;20271;-81
2023/03/25 20:10:07;;;;;;;;;;;;;;;10.52;67.84;99392.84;1088807;46;20348;-84
2023/03/25 20:14:40;;;;;;;;;;;;;;;10.33;69.43;99393.91;1090983;39;20717;-82
2023/03/25 20:15:47;;;;;;;;;;;;;;;10.27;69.02;99392.72;1088248;54;19942;-83
2023/03/25 20:16:58;;;;;;;;;;;;;;;10.29;68.36;99391.56;1088483;54;19935;-81
2023/03/25 20:18:02;;;;;;;;;;;;;;;10.30;68.63;99384.38;1088561;54;19942;-83
2023/03/25 20:19:11;;;;;;;;;;;;;;;10.34;68.21;99383.06;1088648;54;19950;-84
2023/03/25 20:49:14;;;;;;;;;;;;;;;9.89;68.52;99400.16;1087234;54;19942;-80
2023/03/25 20:50:15;;;;;;;;;;;;;;;9.92;68.25;99403.34;1088148;54;19954;-80
2023/03/25 20:51:40;;;;;;;;;;;;;;;9.73;67.78;99407.03;1088063;54;19923;-79
2023/03/25 20:52:56;;;;;;;;;;;;;;;9.72;68.28;99415.22;1088282;54;19927;-80
2023/03/25 20:54:00;;;;;;;;;;;;;;;9.86;68.33;99416.47;1088151;54;19950;-84
2023/03/25 20:56:39;;;;;;;;;;;;;;;9.59;66.83;99399.59;1095384;39;20629;-78
2023/03/25 20:57:40;;;;;;;;;;;;;;;9.49;67.05;99399.69;1096279;47;19938;-83
2023/03/25 20:58:44;;;;;;;;;;;;;;;9.50;67.14;99391.53;1090535;39;20168;-80
2023/03/25 21:00:02;;;;;;;;;;;;;;;;;;;;;
2023/03/25 21:01:08;;;;;;;;;;;;;;;9.57;66.92;99385.56;1088009;54;19942;-82
2023/03/25 21:02:20;;;;;;;;;;;;;;;9.49;66.45;99383.69;1089469;46;19954;-84
2023/03/25 21:04:59;;;;;;;;;;;;;;;9.53;66.17;99374.38;1087988;54;20579;-84
2023/03/25 21:09:08;;;;;;;;;;;;;;;9.55;64.59;99392.88;1088154;54;19944;-81
2023/03/25 21:13:23;;;;;;;;;;;;;;;9.72;64.11;99393.84;1088143;54;19943;-81
2023/03/25 21:14:30;;;;;;;;;;;;;;;9.77;64.55;99384.38;1088101;54;19942;-84
2023/03/25 21:17:00;;;;;;;;;;;;;;;9.66;65.01;99398.84;1088069;54;19943;-80
2023/03/25 21:19:54;;;;;;;;;;;;;;;9.80;65.00;99400.09;1087989;54;19966;-82
2023/03/25 21:20:59;;;;;;;;;;;;;;;9.87;64.97;99386.13;1088713;46;19939;-80
2023/03/25 21:22:01;;;;;;;;;;;;;;;9.71;65.09;99397.50;1087953;54;19943;-78
2023/03/25 21:23:08;;;;;;;;;;;;;;;9.62;65.56;99394.78;1088594;46;19957;-80
2023/03/25 21:24:10;;;;;;;;;;;;;;;9.75;65.06;99394.38;1087935;54;19942;-79
2023/03/25 21:25:16;;;;;;;;;;;;;;;9.74;65.41;99392.69;1087872;54;19942;-79
2023/03/25 21:26:21;;;;;;;;;;;;;;;9.63;65.65;99395.63;1087913;54;19938;-83
2023/03/25 21:33:44;;;;;;;;;;;;;;;9.60;67.20;99388.75;1087972;54;19942;-82
2023/03/25 21:34:45;;;;;;;;;;;;;;;9.60;67.40;99387.94;1092721;46;19927;-81
2023/03/25 21:37:26;;;;;;;;;;;;;;;9.71;66.37;99387.69;1087629;54;19942;-81
2023/03/25 21:38:30;;;;;;;;;;;;;;;9.70;66.28;99402.03;1089544;46;19942;-81
2023/03/25 21:41:07;;;;;;;;;;;;;;;9.72;65.94;99400.06;1089236;39;20231;-79
2023/03/25 21:42:08;;;;;;;;;;;;;;;9.70;65.78;99407.38;1087820;54;19943;-78
2023/03/25 21:43:11;;;;;;;;;;;;;;;9.75;65.46;99407.72;1087678;54;19990;-79
2023/03/25 21:44:15;;;;;;;;;;;;;;;9.72;65.05;99416.06;1087861;46;20277;-80
2023/03/25 21:45:19;;;;;;;;;;;;;;;9.68;64.90;99402.16;1089874;46;19946;-80
2023/03/25 21:46:22;;;;;;;;;;;;;;;9.66;64.99;99422.00;1087906;46;19939;-79
2023/03/25 21:47:26;;;;;;;;;;;;;;;9.75;64.77;99420.25;1087790;54;19947;-80
2023/03/25 21:48:28;;;;;;;;;;;;;;;9.83;64.99;99426.47;1087966;47;19943;-80
2023/03/25 21:49:33;;;;;;;;;;;;;;;9.75;64.59;99420.25;1087650;54;19931;-81
2023/03/25 21:50:35;;;;;;;;;;;;;;;9.64;64.65;99419.50;1087708;54;19955;-80
2023/03/25 21:51:42;;;;;;;;;;;;;;;9.62;65.26;99415.31;1090277;46;19939;-80
2023/03/25 21:52:45;;;;;;;;;;;;;;;9.56;65.40;99422.09;1087693;54;19943;-79
2023/03/25 21:53:51;;;;;;;;;;;;;;;9.48;65.24;99436.19;1088003;46;19950;-79
2023/03/25 21:54:53;;;;;;;;;;;;;;;9.42;65.93;99434.16;1087640;54;19942;-79
2023/03/25 21:55:58;;;;;;;;;;;;;;;9.55;65.55;99435.56;1087736;54;20001;-80
2023/03/25 21:57:03;;;;;;;;;;;;;;;9.57;65.96;99438.94;1087791;54;19947;-80
2023/03/25 21:58:08;;;;;;;;;;;;;;;9.64;65.65;99429.31;1087832;46;19946;-80
2023/03/25 21:59:12;;;;;;;;;;;;;;;9.65;66.04;99425.66;1087790;54;19927;-80
2023/03/25 22:00:15;;;;;;;;;;;;;;;9.52;66.43;99421.56;1087990;46;19939;-80
2023/03/25 22:01:21;;;;;;;;;;;;;;;9.56;66.57;99418.56;1087727;54;19946;-80
2023/03/25 22:02:24;;;;;;;;;;;;;;;9.57;66.46;99429.13;1087764;54;19938;-80
2023/03/25 22:03:34;;;;;;;;;;;;;;;9.47;66.18;99420.34;1087667;54;19950;-80
2023/03/25 22:04:36;;;;;;;;;;;;;;;9.44;66.19;99420.66;1087722;54;19973;-79
2023/03/25 22:05:40;;;;;;;;;;;;;;;9.45;66.38;99436.50;1088009;46;19943;-79
2023/03/25 22:06:41;;;;;;;;;;;;;;;9.43;66.73;99426.97;1087779;54;19947;-79
2023/03/25 22:07:44;;;;;;;;;;;;;;;9.39;66.86;99428.28;1087705;54;19942;-79
2023/03/25 22:08:48;;;;;;;;;;;;;;;9.28;67.31;99432.00;1087696;47;19939;-80
2023/03/25 22:09:52;;;;;;;;;;;;;;;9.26;67.73;99434.00;1087735;54;19938;-79
2023/03/25 22:10:59;;;;;;;;;;;;;;;9.33;67.73;99432.38;1087621;54;20805;-82
2023/03/25 22:12:03;;;;;;;;;;;;;;;9.33;67.47;99435.06;1087809;54;19950;-80
2023/03/25 22:13:04;;;;;;;;;;;;;;;9.37;67.35;99425.75;1087778;54;19926;-79
2023/03/25 22:14:09;;;;;;;;;;;;;;;9.24;67.66;99423.47;1087723;54;19942;-80
2023/03/25 22:15:10;;;;;;;;;;;;;;;9.26;67.87;99426.81;1088731;46;19957;-80
2023/03/25 22:16:15;;;;;;;;;;;;;;;9.33;67.57;99429.72;1087815;54;19943;-81
2023/03/25 22:17:16;;;;;;;;;;;;;;;9.25;68.20;99425.13;1087681;54;19931;-80
2023/03/25 22:18:20;;;;;;;;;;;;;;;9.35;67.82;99441.09;1087665;54;20749;-80
2023/03/25 22:19:21;;;;;;;;;;;;;;;9.39;67.92;99422.94;1087729;54;19943;-80
2023/03/25 22:20:25;;;;;;;;;;;;;;;9.19;69.05;99437.25;1087854;46;20326;-81
2023/03/25 22:21:28;;;;;;;;;;;;;;;9.14;69.90;99425.34;1087678;54;19949;-81
2023/03/25 22:22:32;;;;;;;;;;;;;;;9.08;71.06;99439.28;1087601;54;19997;-81
2023/03/25 22:23:33;;;;;;;;;;;;;;;8.96;71.78;99430.69;1087749;54;19942;-79
2023/03/25 22:24:39;;;;;;;;;;;;;;;8.92;72.29;99426.63;1087745;54;19954;-81
2023/03/25 22:25:40;;;;;;;;;;;;;;;8.79;73.21;99421.63;1087691;54;19943;-79
2023/03/25 22:26:44;;;;;;;;;;;;;;;8.76;73.51;99425.44;1087741;54;19942;-81
2023/03/25 22:27:45;;;;;;;;;;;;;;;8.69;73.89;99429.69;1088649;46;19950;-81
2023/03/25 22:28:50;;;;;;;;;;;;;;;8.64;73.95;99414.16;1087685;54;19935;-80
2023/03/25 22:29:53;;;;;;;;;;;;;;;8.58;74.46;99418.25;1087719;54;19946;-80
2023/03/25 22:30:55;;;;;;;;;;;;;;;8.52;74.90;99410.81;1087575;54;19938;-80
2023/03/25 22:32:05;;;;;;;;;;;;;;;8.48;75.10;99412.13;1087627;54;19947;-80
2023/03/25 22:33:06;;;;;;;;;;;;;;;8.63;75.21;99392.97;1087679;54;19942;-82
2023/03/25 22:34:14;;;;;;;;;;;;;;;8.60;75.41;99399.44;1088680;39;20245;-81
2023/03/25 22:35:16;;;;;;;;;;;;;;;8.65;74.60;99397.16;1087813;54;19943;-81
2023/03/25 22:36:20;;;;;;;;;;;;;;;8.58;74.78;99398.72;1087956;46;19942;-80
2023/03/25 22:37:21;;;;;;;;;;;;;;;8.56;75.29;99396.22;1087697;54;19934;-81
2023/03/25 22:38:24;;;;;;;;;;;;;;;8.52;74.51;99397.50;1087759;54;20031;-81
2023/03/25 22:39:27;;;;;;;;;;;;;;;8.54;74.19;99400.84;1087626;54;19946;-80
2023/03/25 22:40:33;;;;;;;;;;;;;;;8.53;74.23;99403.69;1087786;54;19951;-81
2023/03/25 22:41:35;;;;;;;;;;;;;;;8.49;74.25;99403.16;1088584;46;19942;-82
2023/03/25 22:42:38;;;;;;;;;;;;;;;8.57;74.26;99399.72;1087686;54;19943;-81
2023/03/25 22:43:40;;;;;;;;;;;;;;;8.60;74.29;99407.44;1087911;39;20496;-81
2023/03/25 22:44:44;;;;;;;;;;;;;;;8.63;74.28;99404.47;1089407;39;20204;-81
2023/03/25 22:45:45;;;;;;;;;;;;;;;8.62;74.53;99397.47;1087629;54;19931;-81
2023/03/25 22:46:49;;;;;;;;;;;;;;;8.69;74.86;99405.72;1087698;54;19950;-81
2023/03/25 22:48:03;;;;;;;;;;;;;;;8.67;74.78;99397.03;1087631;54;19965;-80
2023/03/25 22:49:06;;;;;;;;;;;;;;;8.67;74.94;99397.03;1087579;54;19942;-81
2023/03/25 22:50:09;;;;;;;;;;;;;;;8.66;74.72;99398.00;1087675;54;19943;-81
2023/03/25 22:51:14;;;;;;;;;;;;;;;8.60;75.20;99404.75;1087946;46;19949;-80
2023/03/25 22:52:15;;;;;;;;;;;;;;;8.58;75.24;99396.06;1087683;54;19959;-80
2023/03/25 22:53:19;;;;;;;;;;;;;;;8.72;74.62;99397.41;1087620;54;19962;-80
2023/03/25 22:54:22;;;;;;;;;;;;;;;8.75;74.39;99397.13;1087550;54;19934;-80
2023/03/25 22:55:26;;;;;;;;;;;;;;;8.73;74.78;99407.06;1087501;54;19994;-81
2023/03/25 22:56:32;;;;;;;;;;;;;;;8.82;74.11;99413.34;1087520;54;19943;-79
2023/03/25 22:57:38;;;;;;;;;;;;;;;8.79;74.46;99409.13;1087428;47;19942;-81
2023/03/25 22:58:39;;;;;;;;;;;;;;;8.86;74.01;99404.91;1087606;54;19943;-82
2023/03/25 22:59:43;;;;;;;;;;;;;;;8.92;74.07;99399.97;1089506;46;19950;-82
2023/03/25 23:00:45;;;;;;;;;;;;;;;8.89;74.20;99407.25;1087536;54;20002;-80
